Time;durP1;ratioP1;P1;durP2;ratioP2;P2;SDS_P1;SDS_P2;PMS_P1;PMS_P2;Temp;Humidity;BMP_temperature;BMP_pressure;BME280_temperature;BME280_humidity;BME280_pressure;Samples;Min_cycle;Max_cycle;Signal;HPM_P1;HPM_P2
2022/01/10 00:00:01;;;;;;;;;;;;;;;13.95;64.81;100705.28;1057370;27;1529;-58
2022/01/10 00:00:51;;;;;;;;;;;;;;;13.95;64.65;100713.31;1054937;28;1593;-58
2022/01/10 00:01:42;;;;;;;;;;;;;;;13.95;65.35;100712.47;1056249;28;1461;-60
2022/01/10 00:02:32;;;;;;;;;;;;;;;13.95;65.09;100707.97;1057730;28;1725;-59
2022/01/10 00:03:23;;;;;;;;;;;;;;;13.95;64.93;100716.00;1055752;28;1567;-58
2022/01/10 00:04:14;;;;;;;;;;;;;;;13.94;64.63;100711.63;1056792;28;1505;-59
2022/01/10 00:05:04;;;;;;;;;;;;;;;13.94;64.96;100708.09;1055474;28;1587;-58
2022/01/10 00:05:55;;;;;;;;;;;;;;;13.94;64.56;100706.25;1056268;28;1674;-58
2022/01/10 00:06:45;;;;;;;;;;;;;;;13.93;64.92;100715.28;1054878;28;1716;-58
2022/01/10 00:07:36;;;;;;;;;;;;;;;13.92;64.37;100710.88;1056104;28;1731;-60
2022/01/10 00:08:26;;;;;;;;;;;;;;;13.92;64.85;100708.22;1054431;28;1398;-60
2022/01/10 00:09:16;;;;;;;;;;;;;;;13.92;64.76;100710.03;1056564;28;1471;-58
2022/01/10 00:10:07;;;;;;;;;;;;;;;13.90;64.42;100716.38;1055113;28;1591;-58
2022/01/10 00:10:57;;;;;;;;;;;;;;;13.90;64.52;100715.50;1056651;28;1354;-58
2022/01/10 00:11:48;;;;;;;;;;;;;;;13.90;64.72;100716.38;1055171;28;1376;-58
2022/01/10 00:12:38;;;;;;;;;;;;;;;13.93;64.32;100714.41;1056024;28;1367;-58
2022/01/10 00:13:28;;;;;;;;;;;;;;;13.92;64.81;100718.06;1056071;28;1386;-58
2022/01/10 00:14:19;;;;;;;;;;;;;;;13.91;63.96;100719.91;1057931;28;1357;-58
2022/01/10 00:15:09;;;;;;;;;;;;;;;13.90;64.63;100715.50;1055658;28;1498;-58
2022/01/10 00:16:00;;;;;;;;;;;;;;;13.90;64.96;100715.50;1058163;28;1365;-58
2022/01/10 00:16:50;;;;;;;;;;;;;;;13.90;64.21;100715.50;1056154;28;1472;-58
2022/01/10 00:17:41;;;;;;;;;;;;;;;13.89;64.34;100713.81;1056655;28;1537;-58
2022/01/10 00:18:31;;;;;;;;;;;;;;;13.89;64.28;100721.84;1056172;28;1491;-58
2022/01/10 00:19:22;;;;;;;;;;;;;;;13.88;64.78;100722.81;1057758;28;1479;-58
2022/01/10 00:20:13;;;;;;;;;;;;;;;13.89;64.40;100721.84;1056635;28;1455;-58
2022/01/10 00:21:03;;;;;;;;;;;;;;;13.88;64.49;100723.66;1056239;28;1455;-58
2022/01/10 00:21:53;;;;;;;;;;;;;;;13.87;65.04;100726.47;1058089;27;1533;-58
2022/01/10 00:22:46;;;;;;;;;;;;;;;13.87;64.96;100726.47;1058239;28;1255;-59
2022/01/10 00:23:36;;;;;;;;;;;;;;;13.87;64.71;100727.31;1057203;28;1453;-58
2022/01/10 00:24:26;;;;;;;;;;;;;;;13.88;64.47;100730.84;1055414;28;1398;-59
2022/01/10 00:25:17;;;;;;;;;;;;;;;13.87;64.40;100729.16;1057318;28;1409;-58
2022/01/10 00:26:07;;;;;;;;;;;;;;;13.85;64.96;100731.09;1056212;28;1792;-59
2022/01/10 00:26:58;;;;;;;;;;;;;;;13.85;65.07;100731.09;1056744;28;1453;-58
2022/01/10 00:27:49;;;;;;;;;;;;;;;13.85;64.61;100736.44;1056074;28;1725;-58
2022/01/10 00:28:39;;;;;;;;;;;;;;;13.85;64.80;100728.41;1056789;28;2091;-58
2022/01/10 00:29:30;;;;;;;;;;;;;;;13.84;64.13;100727.56;1055779;28;1451;-58
2022/01/10 00:30:21;;;;;;;;;;;;;;;13.87;64.30;100729.16;1053608;28;1544;-57
2022/01/10 00:31:11;;;;;;;;;;;;;;;13.85;64.58;100733.78;1056448;28;1359;-58
2022/01/10 00:32:01;;;;;;;;;;;;;;;13.85;64.76;100733.78;1054671;28;1596;-58
2022/01/10 00:32:52;;;;;;;;;;;;;;;13.84;64.25;100730.25;1053754;28;1576;-58
2022/01/10 00:33:42;;;;;;;;;;;;;;;13.84;64.29;100734.75;1053420;28;1582;-57
2022/01/10 00:34:33;;;;;;;;;;;;;;;13.84;64.83;100738.28;1056770;28;1485;-58
2022/01/10 00:35:23;;;;;;;;;;;;;;;13.85;63.93;100739.13;1055355;28;1567;-58
2022/01/10 00:36:14;;;;;;;;;;;;;;;13.84;64.09;100740.09;1056909;28;1968;-58
2022/01/10 00:37:04;;;;;;;;;;;;;;;13.82;64.30;100745.59;1056801;27;1441;-59
2022/01/10 00:37:54;;;;;;;;;;;;;;;13.83;64.15;100738.41;1054218;28;847;-60
2022/01/10 00:38:45;;;;;;;;;;;;;;;13.83;64.35;100741.06;1054828;28;806;-60
2022/01/10 00:39:35;;;;;;;;;;;;;;;13.82;64.56;100740.22;1054650;28;949;-60
2022/01/10 00:40:26;;;;;;;;;;;;;;;13.82;64.59;100739.38;1054887;28;625;-58
2022/01/10 00:41:16;;;;;;;;;;;;;;;13.82;65.17;100744.72;1053566;28;700;-58
2022/01/10 00:42:07;;;;;;;;;;;;;;;13.81;64.80;100741.19;1054673;28;699;-58
2022/01/10 00:42:58;;;;;;;;;;;;;;;13.83;64.83;100743.75;1054835;28;709;-58
2022/01/10 00:43:51;;;;;;;;;;;;;;;13.82;64.84;100750.09;1053434;28;751;-58
2022/01/10 00:44:46;;;;;;;;;;;;;;;13.82;64.70;100750.09;1053615;28;696;-58
2022/01/10 00:45:36;;;;;;;;;;;;;;;13.81;64.55;100754.59;1056710;28;1779;-58
2022/01/10 00:46:27;;;;;;;;;;;;;;;13.81;64.04;100751.06;1056751;28;1327;-58
2022/01/10 00:47:17;;;;;;;;;;;;;;;13.82;64.63;100760.81;1056477;28;1473;-58
2022/01/10 00:48:08;;;;;;;;;;;;;;;13.81;64.66;100759.09;1056764;28;1388;-58
2022/01/10 00:48:58;;;;;;;;;;;;;;;13.81;64.63;100759.94;1053337;28;1438;-58
2022/01/10 00:49:48;;;;;;;;;;;;;;;13.81;64.27;100759.09;1053479;28;1562;-58
2022/01/10 00:50:39;;;;;;;;;;;;;;;13.81;64.33;100764.44;1055632;28;1655;-58
2022/01/10 00:51:29;;;;;;;;;;;;;;;13.81;64.76;100767.13;1057507;28;1566;-57
2022/01/10 00:52:21;;;;;;;;;;;;;;;13.81;64.35;100769.81;1055462;28;1339;-58
2022/01/10 00:53:12;;;;;;;;;;;;;;;13.79;64.82;100769.94;1057764;28;1560;-58
2022/01/10 00:54:02;;;;;;;;;;;;;;;13.79;64.29;100771.78;1055236;28;1430;-58
2022/01/10 00:54:52;;;;;;;;;;;;;;;13.80;64.08;100773.47;1057783;28;1331;-58
2022/01/10 00:55:43;;;;;;;;;;;;;;;13.79;64.70;100769.09;1056711;28;1477;-59
2022/01/10 00:56:33;;;;;;;;;;;;;;;13.79;63.96;100774.47;1056176;28;1959;-58
2022/01/10 00:57:24;;;;;;;;;;;;;;;13.79;64.27;100774.47;1058204;28;1476;-59
2022/01/10 00:58:14;;;;;;;;;;;;;;;13.78;64.51;100767.41;1056296;28;1554;-59
2022/01/10 00:59:04;;;;;;;;;;;;;;;13.78;64.79;100775.44;1055604;28;1434;-58
2022/01/10 00:59:55;;;;;;;;;;;;;;;13.78;65.04;100772.75;1056026;28;1447;-58
2022/01/10 01:00:45;;;;;;;;;;;;;;;13.78;63.84;100775.44;1057017;28;1485;-58
2022/01/10 01:01:36;;;;;;;;;;;;;;;13.79;64.27;100779.81;1057276;28;1649;-58
2022/01/10 01:02:31;;;;;;;;;;;;;;;13.78;64.35;100781.66;1057047;27;1537;-58
2022/01/10 01:03:22;;;;;;;;;;;;;;;13.77;64.59;100779.09;1057130;28;653;-58
2022/01/10 01:04:14;;;;;;;;;;;;;;;13.77;64.69;100781.75;1057054;28;787;-58
2022/01/10 01:05:06;;;;;;;;;;;;;;;13.74;64.33;100790.88;1056954;28;1862;-58
2022/01/10 01:05:56;;;;;;;;;;;;;;;13.74;64.99;100784.69;1057764;28;816;-58
2022/01/10 01:06:48;;;;;;;;;;;;;;;13.74;65.07;100788.22;1057416;28;982;-58
2022/01/10 01:07:38;;;;;;;;;;;;;;;13.74;64.35;100790.03;1057621;28;784;-57
2022/01/10 01:08:31;;;;;;;;;;;;;;;13.74;64.25;100790.03;1057801;28;668;-58
2022/01/10 01:09:27;;;;;;;;;;;;;;;13.74;64.04;100798.06;1057803;28;660;-58
2022/01/10 01:11:52;;;;;;;;;;;;;;;13.75;64.17;100800.63;1058282;28;683;-58
2022/01/10 01:12:47;;;;;;;;;;;;;;;13.76;63.95;100798.81;1057839;28;799;-58
2022/01/10 01:14:50;;;;;;;;;;;;;;;13.75;64.39;100807.81;1058785;28;664;-58
2022/01/10 01:16:58;;;;;;;;;;;;;;;13.74;64.62;100814.13;1054069;28;691;-58
2022/01/10 01:19:28;;;;;;;;;;;;;;;13.73;64.08;100817.78;1053352;28;720;-58
2022/01/10 01:20:30;;;;;;;;;;;;;;;13.73;63.97;100812.44;1053080;28;794;-58
2022/01/10 01:24:48;;;;;;;;;;;;;;;13.72;64.28;100821.44;1056055;28;1885;-58
2022/01/10 01:25:38;;;;;;;;;;;;;;;13.69;64.55;100825.22;1059027;28;882;-58
2022/01/10 01:26:29;;;;;;;;;;;;;;;13.70;64.15;100820.69;1057834;28;770;-57
2022/01/10 01:27:19;;;;;;;;;;;;;;;13.69;64.48;100817.16;1057882;28;941;-59
2022/01/10 01:28:10;;;;;;;;;;;;;;;13.70;64.52;100823.38;1058779;28;700;-58
2022/01/10 01:29:00;;;;;;;;;;;;;;;13.68;64.13;100822.66;1054130;28;721;-58
2022/01/10 01:29:51;;;;;;;;;;;;;;;13.69;63.94;100824.34;1054697;28;784;-60
2022/01/10 01:30:42;;;;;;;;;;;;;;;13.69;64.68;100824.34;1054616;28;747;-60
2022/01/10 01:31:33;;;;;;;;;;;;;;;13.69;64.00;100824.34;1054530;28;933;-58
2022/01/10 01:32:24;;;;;;;;;;;;;;;13.69;64.81;100822.53;1054765;28;759;-58
2022/01/10 01:33:15;;;;;;;;;;;;;;;13.68;64.52;100823.50;1054247;28;973;-60
2022/01/10 01:34:06;;;;;;;;;;;;;;;13.68;63.77;100830.69;1054248;28;636;-58
2022/01/10 01:35:03;;;;;;;;;;;;;;;13.69;64.21;100827.88;1054927;28;815;-58
2022/01/10 01:35:53;;;;;;;;;;;;;;;13.68;63.93;100822.66;1054271;28;739;-58
2022/01/10 01:36:47;;;;;;;;;;;;;;;13.68;64.95;100836.03;1055291;28;1951;-58
2022/01/10 01:37:38;;;;;;;;;;;;;;;13.67;63.90;100837.00;1054335;28;707;-58
2022/01/10 01:38:29;;;;;;;;;;;;;;;13.68;64.60;100838.72;1054343;28;649;-58
2022/01/10 01:39:21;;;;;;;;;;;;;;;13.68;63.62;100844.06;1054956;28;770;-58
2022/01/10 01:40:12;;;;;;;;;;;;;;;13.67;64.37;100837.84;1054330;28;868;-58
2022/01/10 01:43:21;;;;;;;;;;;;;;;13.65;64.54;100842.47;1052000;28;696;-58
2022/01/10 01:44:11;;;;;;;;;;;;;;;13.65;64.69;100846.97;1053527;28;783;-58
2022/01/10 01:45:01;;;;;;;;;;;;;;;13.65;63.60;100844.31;1054827;28;828;-59
2022/01/10 01:45:52;;;;;;;;;;;;;;;13.65;64.29;100847.84;1054753;28;801;-59
2022/01/10 01:46:42;;;;;;;;;;;;;;;13.64;63.80;100843.44;1054843;28;704;-59
2022/01/10 01:47:33;;;;;;;;;;;;;;;13.64;63.86;100850.63;1054078;28;738;-59
2022/01/10 01:48:23;;;;;;;;;;;;;;;13.64;64.25;100853.31;1054745;28;930;-59
2022/01/10 01:49:14;;;;;;;;;;;;;;;13.64;64.00;100851.47;1054813;28;649;-58
2022/01/10 01:50:04;;;;;;;;;;;;;;;13.64;63.77;100854.16;1054834;28;813;-59
2022/01/10 01:50:54;;;;;;;;;;;;;;;13.64;64.18;100854.16;1054717;28;748;-59
2022/01/10 01:51:45;;;;;;;;;;;;;;;13.64;64.63;100850.63;1054657;28;931;-59
2022/01/10 01:52:35;;;;;;;;;;;;;;;13.63;64.49;100854.28;1054790;28;807;-59
2022/01/10 01:53:26;;;;;;;;;;;;;;;13.62;64.66;100860.59;1054726;28;687;-59
2022/01/10 01:54:17;;;;;;;;;;;;;;;13.62;64.30;100866.81;1054917;28;726;-58
2022/01/10 01:55:08;;;;;;;;;;;;;;;13.62;63.86;100860.59;1054313;28;751;-58
2022/01/10 01:55:58;;;;;;;;;;;;;;;13.61;64.81;100865.13;1054708;28;1295;-59
2022/01/10 01:56:48;;;;;;;;;;;;;;;13.61;63.64;100864.28;1054722;28;860;-59
2022/01/10 01:57:39;;;;;;;;;;;;;;;13.60;64.62;100862.56;1054754;28;805;-59
2022/01/10 01:58:29;;;;;;;;;;;;;;;13.59;64.44;100867.06;1054868;28;707;-59
2022/01/10 01:59:20;;;;;;;;;;;;;;;13.60;64.50;100863.44;1054801;28;768;-59
2022/01/10 02:00:10;;;;;;;;;;;;;;;13.59;63.83;100866.22;1054814;28;621;-59
2022/01/10 02:01:00;;;;;;;;;;;;;;;13.59;64.02;100866.22;1054582;28;774;-59
2022/01/10 02:01:51;;;;;;;;;;;;;;;13.58;64.39;100865.38;1058748;28;1780;-59
2022/01/10 02:02:41;;;;;;;;;;;;;;;13.59;64.00;100869.75;1057830;28;703;-59
2022/01/10 02:03:37;;;;;;;;;;;;;;;13.58;63.79;100872.53;1058522;28;637;-59
2022/01/10 02:04:27;;;;;;;;;;;;;;;13.58;63.97;100872.53;1058466;28;684;-59
2022/01/10 02:05:18;;;;;;;;;;;;;;;13.57;64.41;100871.69;1058874;28;902;-59
2022/01/10 02:06:08;;;;;;;;;;;;;;;13.58;64.71;100864.50;1057245;28;669;-58
2022/01/10 02:06:59;;;;;;;;;;;;;;;13.57;63.91;100869.00;1057962;28;746;-59
2022/01/10 02:07:49;;;;;;;;;;;;;;;13.58;64.52;100865.38;1057730;28;750;-59
2022/01/10 02:08:40;;;;;;;;;;;;;;;13.58;64.05;100873.41;1058454;28;734;-59
2022/01/10 02:09:30;;;;;;;;;;;;;;;13.59;63.54;100871.56;1054363;28;876;-59
2022/01/10 02:10:21;;;;;;;;;;;;;;;13.58;63.55;100883.25;1053788;28;665;-59
2022/01/10 02:11:11;;;;;;;;;;;;;;;13.58;63.95;100892.16;1058297;28;844;-59
2022/01/10 02:12:02;;;;;;;;;;;;;;;13.58;64.16;100894.81;1058779;28;693;-59
2022/01/10 02:12:52;;;;;;;;;;;;;;;13.60;64.38;100900.06;1057752;28;685;-59
2022/01/10 02:13:42;;;;;;;;;;;;;;;13.58;63.41;100886.78;1057323;28;843;-59
2022/01/10 02:14:33;;;;;;;;;;;;;;;13.57;63.97;100885.06;1057610;28;665;-59
2022/01/10 02:15:25;;;;;;;;;;;;;;;13.57;64.02;100889.56;1053872;28;843;-59
2022/01/10 02:16:21;;;;;;;;;;;;;;;13.57;64.52;100889.56;1054587;28;784;-58
2022/01/10 02:17:13;;;;;;;;;;;;;;;13.54;64.35;100896.00;1054760;28;699;-59
2022/01/10 02:18:03;;;;;;;;;;;;;;;13.56;64.31;100899.44;1054198;28;711;-59
2022/01/10 02:18:54;;;;;;;;;;;;;;;13.54;64.21;100910.25;1054660;28;701;-59
2022/01/10 02:19:44;;;;;;;;;;;;;;;13.55;64.17;100906.63;1054519;28;811;-59
2022/01/10 02:20:34;;;;;;;;;;;;;;;13.54;64.12;100907.56;1054637;28;617;-59
2022/01/10 02:21:25;;;;;;;;;;;;;;;13.53;63.95;100900.50;1054546;28;1950;-59
2022/01/10 02:22:15;;;;;;;;;;;;;;;13.52;64.48;100898.81;1055289;28;625;-59
2022/01/10 02:23:06;;;;;;;;;;;;;;;13.52;64.24;100898.81;1055310;28;662;-59
2022/01/10 02:23:57;;;;;;;;;;;;;;;13.53;63.46;100899.66;1055288;28;711;-59
2022/01/10 02:24:48;;;;;;;;;;;;;;;13.53;64.08;100908.56;1053887;28;801;-59
2022/01/10 02:25:38;;;;;;;;;;;;;;;13.52;63.69;100904.16;1055227;28;684;-59
2022/01/10 02:26:29;;;;;;;;;;;;;;;13.52;63.57;100914.88;1055194;28;779;-59
2022/01/10 02:27:19;;;;;;;;;;;;;;;13.52;64.14;100912.19;1055356;28;642;-59
2022/01/10 02:28:09;;;;;;;;;;;;;;;13.53;63.99;100921.09;1055249;28;838;-59
2022/01/10 02:29:00;;;;;;;;;;;;;;;13.52;64.31;100919.38;1055358;27;787;-59
2022/01/10 02:29:50;;;;;;;;;;;;;;;13.51;63.59;100918.50;1052979;28;1039;-60
2022/01/10 02:30:41;;;;;;;;;;;;;;;13.49;63.33;100908.88;1053438;28;724;-59
2022/01/10 02:31:33;;;;;;;;;;;;;;;13.49;63.48;100906.22;1054502;28;950;-60
2022/01/10 02:32:24;;;;;;;;;;;;;;;13.49;64.47;100914.25;1054406;28;763;-59
2022/01/10 02:33:14;;;;;;;;;;;;;;;13.48;63.82;100912.53;1054187;28;743;-58
2022/01/10 02:34:05;;;;;;;;;;;;;;;13.48;64.08;100913.41;1054584;28;958;-58
2022/01/10 02:34:55;;;;;;;;;;;;;;;13.47;64.51;100917.03;1054750;28;750;-58
2022/01/10 02:35:56;;;;;;;;;;;;;;;13.46;64.61;100926.03;1054260;28;741;-58
2022/01/10 02:36:46;;;;;;;;;;;;;;;13.46;63.73;100928.72;1054343;28;1898;-58
2022/01/10 02:37:37;;;;;;;;;;;;;;;13.46;64.28;100928.72;1055149;28;821;-58
2022/01/10 02:38:27;;;;;;;;;;;;;;;13.44;63.99;100927.97;1055527;28;2158;-58
2022/01/10 02:39:20;;;;;;;;;;;;;;;13.46;64.02;100920.69;1055294;28;688;-58
2022/01/10 02:40:13;;;;;;;;;;;;;;;13.45;64.36;100929.69;1054706;28;630;-57
2022/01/10 02:41:04;;;;;;;;;;;;;;;13.46;63.80;100930.53;1054743;28;816;-58
2022/01/10 02:41:54;;;;;;;;;;;;;;;13.46;64.01;100936.75;1054565;28;748;-58
2022/01/10 02:42:45;;;;;;;;;;;;;;;13.45;64.02;100936.84;1054537;28;853;-58
2022/01/10 02:43:35;;;;;;;;;;;;;;;13.45;63.57;100929.69;1055235;28;739;-58
2022/01/10 02:44:28;;;;;;;;;;;;;;;13.46;64.35;100931.38;1054652;28;633;-58
2022/01/10 02:45:18;;;;;;;;;;;;;;;13.47;63.89;100941.13;1054690;28;623;-58
2022/01/10 02:46:09;;;;;;;;;;;;;;;13.47;63.41;100932.25;1050173;28;765;-58
2022/01/10 02:46:59;;;;;;;;;;;;;;;13.47;63.32;100940.28;1050044;28;859;-58
2022/01/10 02:47:50;;;;;;;;;;;;;;;13.45;64.44;100935.03;1054350;28;1227;-58
2022/01/10 02:48:40;;;;;;;;;;;;;;;13.45;64.33;100939.53;1056450;27;948;-58
2022/01/10 02:49:30;;;;;;;;;;;;;;;13.45;64.30;100947.56;1055168;28;900;-58
2022/01/10 02:50:21;;;;;;;;;;;;;;;13.45;63.75;100948.41;1055286;28;692;-58
2022/01/10 02:51:11;;;;;;;;;;;;;;;13.45;63.17;100944.88;1055223;28;922;-58
2022/01/10 02:52:03;;;;;;;;;;;;;;;13.44;64.11;100949.38;1055079;28;787;-59
2022/01/10 02:52:53;;;;;;;;;;;;;;;13.43;64.04;100946.84;1053925;28;916;-59
2022/01/10 02:53:44;;;;;;;;;;;;;;;13.43;64.35;100947.72;1055150;28;728;-58
2022/01/10 02:54:34;;;;;;;;;;;;;;;13.43;64.33;100953.06;1055137;28;674;-58
2022/01/10 02:55:24;;;;;;;;;;;;;;;13.44;63.83;100959.25;1054987;28;754;-58
2022/01/10 02:56:15;;;;;;;;;;;;;;;13.43;64.19;100958.41;1054911;28;1275;-59
2022/01/10 02:57:05;;;;;;;;;;;;;;;13.43;63.80;100962.91;1055082;28;750;-59
2022/01/10 02:57:56;;;;;;;;;;;;;;;13.41;63.81;100960.34;1055135;28;704;-58
2022/01/10 02:58:46;;;;;;;;;;;;;;;13.42;63.51;100969.25;1059141;27;1785;-59
2022/01/10 02:59:39;;;;;;;;;;;;;;;13.42;64.34;100962.06;1057692;28;837;-59
2022/01/10 03:00:29;;;;;;;;;;;;;;;13.43;64.17;100969.13;1058276;28;601;-58
2022/01/10 03:01:20;;;;;;;;;;;;;;;13.42;64.02;100967.41;1057709;28;902;-59
2022/01/10 03:02:11;;;;;;;;;;;;;;;13.43;63.35;100962.91;1053324;28;783;-58
2022/01/10 03:03:06;;;;;;;;;;;;;;;13.41;63.23;100967.53;1053277;28;788;-59
2022/01/10 03:03:57;;;;;;;;;;;;;;;13.42;63.16;100966.56;1053425;28;783;-58
2022/01/10 03:04:47;;;;;;;;;;;;;;;13.42;63.96;100969.25;1056549;28;755;-58
2022/01/10 03:05:37;;;;;;;;;;;;;;;13.42;63.65;100967.41;1058111;28;923;-58
2022/01/10 03:06:28;;;;;;;;;;;;;;;13.40;64.21;100972.03;1058257;28;1001;-58
2022/01/10 03:07:21;;;;;;;;;;;;;;;13.38;64.59;100984.66;1058185;28;705;-59
2022/01/10 03:08:12;;;;;;;;;;;;;;;13.38;63.67;100976.63;1058778;28;731;-58
2022/01/10 03:09:05;;;;;;;;;;;;;;;13.39;63.86;100977.50;1057628;28;711;-59
2022/01/10 03:09:55;;;;;;;;;;;;;;;13.38;64.00;100979.31;1057615;28;961;-59
2022/01/10 03:10:46;;;;;;;;;;;;;;;13.40;63.92;100980.06;1058791;28;795;-58
2022/01/10 03:11:36;;;;;;;;;;;;;;;13.38;63.67;100982.00;1058119;28;1119;-59
2022/01/10 03:12:30;;;;;;;;;;;;;;;13.39;64.06;100985.53;1058158;28;740;-58
2022/01/10 03:13:20;;;;;;;;;;;;;;;13.39;63.52;100980.16;1057383;28;761;-58
2022/01/10 03:14:14;;;;;;;;;;;;;;;13.39;63.57;100982.84;1058060;28;772;-59
2022/01/10 03:15:04;;;;;;;;;;;;;;;13.39;64.01;100983.69;1058083;28;707;-59
2022/01/10 03:15:54;;;;;;;;;;;;;;;13.38;64.01;100979.31;1058014;28;787;-59
2022/01/10 03:16:45;;;;;;;;;;;;;;;13.37;64.50;100980.28;1058155;28;1889;-59
2022/01/10 03:17:35;;;;;;;;;;;;;;;13.37;63.06;100980.28;1058039;28;649;-59
2022/01/10 03:18:26;;;;;;;;;;;;;;;13.36;64.17;100977.72;1058219;28;711;-59
2022/01/10 03:19:16;;;;;;;;;;;;;;;13.36;64.57;100983.06;1054221;28;1687;-58
2022/01/10 03:20:06;;;;;;;;;;;;;;;13.36;64.44;100989.28;1054439;28;872;-59
2022/01/10 03:20:57;;;;;;;;;;;;;;;13.37;64.39;100996.34;1054482;28;1914;-58
2022/01/10 03:21:47;;;;;;;;;;;;;;;13.35;63.90;100995.59;1054922;28;1034;-58
2022/01/10 03:22:38;;;;;;;;;;;;;;;13.35;63.62;100992.91;1054904;28;756;-59
2022/01/10 03:23:28;;;;;;;;;;;;;;;13.35;63.74;100998.28;1055104;28;657;-59
2022/01/10 03:24:19;;;;;;;;;;;;;;;13.36;63.89;101004.47;1053268;28;835;-59
2022/01/10 03:25:09;;;;;;;;;;;;;;;13.36;63.64;101005.34;1054432;28;641;-58
2022/01/10 03:25:59;;;;;;;;;;;;;;;13.35;63.34;101006.31;1054974;28;712;-59
2022/01/10 03:26:50;;;;;;;;;;;;;;;13.36;64.71;101009.84;1054997;28;708;-59
2022/01/10 03:27:40;;;;;;;;;;;;;;;13.35;64.13;101013.47;1056133;27;655;-58
2022/01/10 03:28:31;;;;;;;;;;;;;;;13.34;63.52;101015.28;1054874;28;704;-57
2022/01/10 03:29:21;;;;;;;;;;;;;;;13.34;64.02;101020.66;1054950;28;669;-58
2022/01/10 03:30:11;;;;;;;;;;;;;;;13.34;63.05;101026.00;1055065;28;641;-58
2022/01/10 03:31:02;;;;;;;;;;;;;;;13.34;64.04;101027.81;1054926;28;621;-57
2022/01/10 03:31:53;;;;;;;;;;;;;;;13.32;63.53;101027.94;1053830;28;705;-58
2022/01/10 03:32:43;;;;;;;;;;;;;;;13.32;63.48;101030.63;1054845;28;618;-58
2022/01/10 03:33:34;;;;;;;;;;;;;;;13.32;63.55;101027.94;1055059;28;614;-57
2022/01/10 03:34:24;;;;;;;;;;;;;;;13.32;63.58;101030.63;1055066;28;621;-57
2022/01/10 03:35:15;;;;;;;;;;;;;;;13.31;64.14;101028.91;1055000;28;751;-57
2022/01/10 03:36:05;;;;;;;;;;;;;;;13.33;64.55;101034.16;1055117;28;637;-57
2022/01/10 03:36:55;;;;;;;;;;;;;;;13.32;63.60;101035.97;1054969;28;783;-57
2022/01/10 03:37:46;;;;;;;;;;;;;;;13.32;64.07;101030.63;1054915;28;720;-57
2022/01/10 03:38:36;;;;;;;;;;;;;;;13.32;63.63;101044.00;1055033;28;847;-57
2022/01/10 03:39:27;;;;;;;;;;;;;;;13.30;63.83;101040.56;1054949;28;775;-57
2022/01/10 03:40:17;;;;;;;;;;;;;;;13.29;64.24;101041.53;1055055;28;669;-57
2022/01/10 03:41:09;;;;;;;;;;;;;;;13.31;63.78;101044.97;1054863;28;917;-57
2022/01/10 03:41:59;;;;;;;;;;;;;;;13.31;64.43;101044.09;1053733;28;749;-57
2022/01/10 03:42:49;;;;;;;;;;;;;;;13.30;63.55;101043.25;1054945;28;762;-57
2022/01/10 03:43:40;;;;;;;;;;;;;;;13.31;64.06;101042.28;1054988;28;719;-57
2022/01/10 03:44:30;;;;;;;;;;;;;;;13.32;63.61;101046.66;1054991;28;684;-57
2022/01/10 03:45:21;;;;;;;;;;;;;;;13.29;64.40;101044.22;1054911;28;910;-57
2022/01/10 03:46:11;;;;;;;;;;;;;;;13.30;63.93;101047.75;1057689;28;1777;-57
2022/01/10 03:47:02;;;;;;;;;;;;;;;13.30;63.43;101050.44;1058101;28;810;-57
2022/01/10 03:47:53;;;;;;;;;;;;;;;13.30;63.11;101053.97;1057829;28;1371;-57
2022/01/10 03:48:43;;;;;;;;;;;;;;;13.29;64.32;101062.09;1058178;28;764;-57
2022/01/10 03:49:33;;;;;;;;;;;;;;;13.30;63.18;101059.31;1052381;28;873;-57
2022/01/10 03:50:24;;;;;;;;;;;;;;;13.30;63.72;101063.81;1053245;28;701;-57
2022/01/10 03:51:14;;;;;;;;;;;;;;;13.30;63.67;101058.44;1053132;28;843;-57
2022/01/10 03:52:05;;;;;;;;;;;;;;;13.30;63.77;101059.31;1049042;28;717;-57
2022/01/10 03:52:55;;;;;;;;;;;;;;;13.28;64.21;101066.59;1050110;28;1867;-57
2022/01/10 03:53:45;;;;;;;;;;;;;;;13.28;63.86;101063.06;1053122;28;878;-57
2022/01/10 03:54:36;;;;;;;;;;;;;;;13.28;64.31;101060.38;1054986;28;814;-58
2022/01/10 03:55:26;;;;;;;;;;;;;;;13.27;63.75;101064.03;1054994;28;936;-57
2022/01/10 03:56:17;;;;;;;;;;;;;;;13.26;63.96;101060.50;1054820;28;1301;-57
2022/01/10 03:57:07;;;;;;;;;;;;;;;13.26;63.36;101064.97;1054850;28;813;-57
2022/01/10 03:57:57;;;;;;;;;;;;;;;13.26;63.10;101064.97;1054895;28;854;-57
2022/01/10 03:58:48;;;;;;;;;;;;;;;13.27;63.76;101072.06;1054313;28;763;-57
2022/01/10 03:59:38;;;;;;;;;;;;;;;13.25;64.70;101065.97;1053122;28;839;-57
2022/01/10 04:00:29;;;;;;;;;;;;;;;13.26;63.77;101070.34;1054919;28;742;-57
2022/01/10 04:01:19;;;;;;;;;;;;;;;13.24;63.40;101065.13;1054994;28;723;-57
2022/01/10 04:02:09;;;;;;;;;;;;;;;13.24;63.58;101070.47;1054272;28;1038;-57
2022/01/10 04:03:05;;;;;;;;;;;;;;;13.25;63.33;101072.19;1054361;28;785;-57
2022/01/10 04:03:56;;;;;;;;;;;;;;;13.25;63.84;101064.16;1052873;28;854;-57
2022/01/10 04:04:46;;;;;;;;;;;;;;;13.24;64.27;101065.13;1054221;28;1878;-58
2022/01/10 04:05:36;;;;;;;;;;;;;;;13.25;63.59;101068.66;1054245;28;746;-57
2022/01/10 04:06:27;;;;;;;;;;;;;;;13.25;64.30;101065.97;1054700;28;1011;-58
2022/01/10 04:07:18;;;;;;;;;;;;;;;13.24;63.79;101065.13;1054310;28;696;-58
2022/01/10 04:08:08;;;;;;;;;;;;;;;13.24;63.67;101073.16;1054257;28;832;-57
2022/01/10 04:08:59;;;;;;;;;;;;;;;13.25;63.46;101074.00;1054468;28;727;-58
2022/01/10 04:09:49;;;;;;;;;;;;;;;13.24;63.93;101080.34;1054392;28;712;-58
2022/01/10 04:10:39;;;;;;;;;;;;;;;13.23;63.85;101087.50;1054233;28;694;-58
2022/01/10 04:11:30;;;;;;;;;;;;;;;13.23;64.52;101084.81;1054254;28;650;-58
2022/01/10 04:12:21;;;;;;;;;;;;;;;13.25;64.25;101092.75;1054740;28;797;-58
2022/01/10 04:13:11;;;;;;;;;;;;;;;13.23;63.29;101079.47;1058285;28;2082;-57
2022/01/10 04:14:01;;;;;;;;;;;;;;;13.22;63.90;101079.59;1057819;28;794;-58
2022/01/10 04:14:52;;;;;;;;;;;;;;;13.22;63.40;101085.78;1057966;28;727;-58
2022/01/10 04:15:42;;;;;;;;;;;;;;;13.24;63.45;101085.69;1057871;28;656;-57
2022/01/10 04:16:33;;;;;;;;;;;;;;;13.23;63.41;101087.50;1057790;28;1968;-58
2022/01/10 04:17:23;;;;;;;;;;;;;;;13.23;62.82;101095.53;1057818;28;676;-57
2022/01/10 04:18:14;;;;;;;;;;;;;;;13.22;63.43;101091.16;1057931;28;672;-57
2022/01/10 04:19:04;;;;;;;;;;;;;;;13.22;64.06;101090.28;1057270;28;1034;-58
2022/01/10 04:19:55;;;;;;;;;;;;;;;13.20;64.34;101085.03;1057980;28;709;-58
2022/01/10 04:20:45;;;;;;;;;;;;;;;13.20;63.88;101085.03;1057789;28;735;-57
2022/01/10 04:21:36;;;;;;;;;;;;;;;13.19;63.62;101084.19;1057709;28;919;-58
2022/01/10 04:22:26;;;;;;;;;;;;;;;13.18;64.34;101086.97;1057870;28;673;-57
2022/01/10 04:23:16;;;;;;;;;;;;;;;13.20;63.66;101095.75;1057845;28;680;-57
2022/01/10 04:24:07;;;;;;;;;;;;;;;13.20;63.70;101095.75;1057978;28;664;-57
2022/01/10 04:24:57;;;;;;;;;;;;;;;13.18;64.24;101103.88;1057712;28;779;-57
2022/01/10 04:25:48;;;;;;;;;;;;;;;13.18;64.59;101095.00;1057935;28;767;-58
2022/01/10 04:26:38;;;;;;;;;;;;;;;13.17;64.42;101096.81;1057188;28;731;-57
2022/01/10 04:27:32;;;;;;;;;;;;;;;13.18;63.76;101103.03;1057889;28;696;-57
2022/01/10 04:28:22;;;;;;;;;;;;;;;13.19;63.23;101108.28;1053534;28;1990;-57
2022/01/10 04:29:12;;;;;;;;;;;;;;;13.19;63.56;101108.28;1055301;28;852;-57
2022/01/10 04:30:03;;;;;;;;;;;;;;;13.20;63.18;101109.13;1055400;27;1989;-57
2022/01/10 04:30:53;;;;;;;;;;;;;;;13.20;64.34;101111.81;1054272;28;831;-57
2022/01/10 04:31:44;;;;;;;;;;;;;;;13.19;64.18;101107.41;1055950;27;742;-58
2022/01/10 04:32:34;;;;;;;;;;;;;;;13.19;63.92;101105.59;1054911;28;729;-58
2022/01/10 04:33:29;;;;;;;;;;;;;;;13.18;63.61;101103.88;1052964;28;955;-58
2022/01/10 04:34:19;;;;;;;;;;;;;;;13.17;63.65;101106.66;1053636;28;625;-57
2022/01/10 04:35:10;;;;;;;;;;;;;;;13.18;64.04;101111.06;1054167;28;840;-57
2022/01/10 04:36:00;;;;;;;;;;;;;;;13.18;62.98;101111.91;1053461;28;718;-57
2022/01/10 04:36:50;;;;;;;;;;;;;;;13.17;63.09;101110.19;1050493;28;1905;-57
2022/01/10 04:37:41;;;;;;;;;;;;;;;13.17;64.26;101120.91;1051932;28;897;-59